Terminal Aerodrome Forecast
Issued by NWS

Home | Current Version | Previous Version | Text Only | Print | Product List | Glossary On
Versions: 1 2 3 4 5 6 7 8 9 10 11 12 13 14 15 16 17 18
000
FTUS41 KCAR 051120
TAFHUL
TAF
KHUL 051120Z 0512/0612 24005KT P6SM SCT003 SCT100
     FM051600 24007KT 6SM -SHRA BKN045
     FM052200 26007KT P6SM BKN150=

USA.gov is the U.S. government's official web portal to all federal, state and local government web resources and services.